sensor_id;sensor_type;location;lat;lon;timestamp;pressure;altitude;pressure_sealevel;temperature;humidity
8320;BME280;4197;42.130;24.746;2022-12-07T00:01:43;99709.06;;;4.54;100.00
8320;BME280;4197;42.130;24.746;2022-12-07T00:04:14;99705.91;;;4.52;100.00
8320;BME280;4197;42.130;24.746;2022-12-07T00:06:44;99706.38;;;4.54;100.00
8320;BME280;4197;42.130;24.746;2022-12-07T00:09:14;99719.63;;;4.51;100.00
8320;BME280;4197;42.130;24.746;2022-12-07T00:11:44;99720.38;;;4.42;100.00
8320;BME280;4197;42.130;24.746;2022-12-07T00:14:16;99719.41;;;4.38;100.00
8320;BME280;4197;42.130;24.746;2022-12-07T00:16:45;99716.13;;;4.41;100.00
8320;BME280;4197;42.130;24.746;2022-12-07T00:19:13;99709.22;;;4.49;100.00
8320;BME280;4197;42.130;24.746;2022-12-07T00:21:42;99708.72;;;4.47;100.00
8320;BME280;4197;42.130;24.746;2022-12-07T00:24:10;99713.59;;;4.45;100.00
8320;BME280;4197;42.130;24.746;2022-12-07T00:26:40;99707.44;;;4.44;100.00
8320;BME280;4197;42.130;24.746;2022-12-07T00:29:14;99718.19;;;4.44;100.00
8320;BME280;4197;42.130;24.746;2022-12-07T00:31:43;99715.34;;;4.41;100.00
8320;BME280;4197;42.130;24.746;2022-12-07T00:34:13;99716.72;;;4.38;100.00
8320;BME280;4197;42.130;24.746;2022-12-07T00:36:42;99725.69;;;4.34;100.00
8320;BME280;4197;42.130;24.746;2022-12-07T00:39:10;99724.34;;;4.22;100.00
8320;BME280;4197;42.130;24.746;2022-12-07T00:41:38;99710.25;;;4.17;100.00
8320;BME280;4197;42.130;24.746;2022-12-07T00:44:07;99717.19;;;4.18;100.00
8320;BME280;4197;42.130;24.746;2022-12-07T00:46:36;99714.50;;;4.18;100.00
8320;BME280;4197;42.130;24.746;2022-12-07T00:49:04;99708.53;;;4.21;100.00
8320;BME280;4197;42.130;24.746;2022-12-07T00:51:32;99701.59;;;4.20;100.00
8320;BME280;4197;42.130;24.746;2022-12-07T00:54:00;99703.00;;;4.17;100.00
8320;BME280;4197;42.130;24.746;2022-12-07T00:56:29;99709.75;;;4.15;100.00
8320;BME280;4197;42.130;24.746;2022-12-07T00:58:59;99709.59;;;4.11;100.00
8320;BME280;4197;42.130;24.746;2022-12-07T01:01:29;99713.66;;;4.09;100.00
8320;BME280;4197;42.130;24.746;2022-12-07T01:04:00;99705.44;;;4.05;100.00
8320;BME280;4197;42.130;24.746;2022-12-07T01:06:29;99705.22;;;4.01;100.00
8320;BME280;4197;42.130;24.746;2022-12-07T01:08:58;99703.66;;;4.00;100.00
8320;BME280;4197;42.130;24.746;2022-12-07T01:11:28;99697.31;;;3.96;100.00
8320;BME280;4197;42.130;24.746;2022-12-07T01:13:58;99695.44;;;3.97;100.00
8320;BME280;4197;42.130;24.746;2022-12-07T01:16:29;99699.19;;;3.96;100.00
8320;BME280;4197;42.130;24.746;2022-12-07T01:19:00;99693.34;;;3.94;100.00
8320;BME280;4197;42.130;24.746;2022-12-07T01:21:33;99693.16;;;3.90;100.00
8320;BME280;4197;42.130;24.746;2022-12-07T01:24:06;99691.38;;;3.86;100.00
8320;BME280;4197;42.130;24.746;2022-12-07T01:26:34;99690.56;;;3.85;100.00
8320;BME280;4197;42.130;24.746;2022-12-07T01:29:03;99689.19;;;3.88;100.00
8320;BME280;4197;42.130;24.746;2022-12-07T01:31:31;99684.63;;;3.88;100.00
8320;BME280;4197;42.130;24.746;2022-12-07T01:34:01;99679.63;;;3.95;100.00
8320;BME280;4197;42.130;24.746;2022-12-07T01:36:31;99679.50;;;4.00;100.00
8320;BME280;4197;42.130;24.746;2022-12-07T01:39:02;99670.84;;;4.03;100.00
8320;BME280;4197;42.130;24.746;2022-12-07T01:41:32;99673.84;;;4.02;100.00
8320;BME280;4197;42.130;24.746;2022-12-07T01:44:11;99665.78;;;4.02;100.00
8320;BME280;4197;42.130;24.746;2022-12-07T01:46:41;99662.91;;;3.98;100.00
8320;BME280;4197;42.130;24.746;2022-12-07T01:49:16;99671.00;;;4.07;100.00
8320;BME280;4197;42.130;24.746;2022-12-07T01:51:46;99659.69;;;4.10;100.00
8320;BME280;4197;42.130;24.746;2022-12-07T01:54:16;99668.84;;;4.09;100.00
8320;BME280;4197;42.130;24.746;2022-12-07T01:56:49;99665.84;;;4.11;100.00
8320;BME280;4197;42.130;24.746;2022-12-07T01:59:20;99666.81;;;4.15;100.00
8320;BME280;4197;42.130;24.746;2022-12-07T02:01:49;99668.09;;;4.17;100.00
8320;BME280;4197;42.130;24.746;2022-12-07T02:04:19;99660.38;;;4.16;100.00
8320;BME280;4197;42.130;24.746;2022-12-07T02:06:50;99665.25;;;4.14;100.00
8320;BME280;4197;42.130;24.746;2022-12-07T02:09:19;99657.81;;;4.11;100.00
8320;BME280;4197;42.130;24.746;2022-12-07T02:11:48;99661.56;;;4.10;100.00
8320;BME280;4197;42.130;24.746;2022-12-07T02:14:16;99671.00;;;4.07;100.00
8320;BME280;4197;42.130;24.746;2022-12-07T02:16:53;99668.03;;;4.09;100.00
8320;BME280;4197;42.130;24.746;2022-12-07T02:23:04;99646.44;;;4.14;100.00
8320;BME280;4197;42.130;24.746;2022-12-07T02:25:53;99647.78;;;4.02;100.00
8320;BME280;4197;42.130;24.746;2022-12-07T02:28:29;99645.91;;;4.03;100.00
8320;BME280;4197;42.130;24.746;2022-12-07T02:31:04;99636.06;;;3.98;100.00
8320;BME280;4197;42.130;24.746;2022-12-07T02:33:37;99640.78;;;3.93;100.00
8320;BME280;4197;42.130;24.746;2022-12-07T02:36:11;99634.72;;;3.87;100.00
8320;BME280;4197;42.130;24.746;2022-12-07T02:38:47;99635.66;;;3.83;100.00
8320;BME280;4197;42.130;24.746;2022-12-07T02:41:22;99632.16;;;3.82;100.00
8320;BME280;4197;42.130;24.746;2022-12-07T02:43:54;99629.19;;;3.84;100.00
8320;BME280;4197;42.130;24.746;2022-12-07T02:46:28;99639.13;;;3.83;100.00
8320;BME280;4197;42.130;24.746;2022-12-07T02:48:58;99634.38;;;3.80;100.00
8320;BME280;4197;42.130;24.746;2022-12-07T02:51:29;99637.53;;;3.82;100.00
8320;BME280;4197;42.130;24.746;2022-12-07T02:53:58;99625.59;;;3.88;100.00
8320;BME280;4197;42.130;24.746;2022-12-07T02:56:33;99627.56;;;3.96;100.00
8320;BME280;4197;42.130;24.746;2022-12-07T02:59:10;99617.91;;;3.95;100.00
8320;BME280;4197;42.130;24.746;2022-12-07T03:01:50;99617.41;;;3.93;100.00
8320;BME280;4197;42.130;24.746;2022-12-07T03:04:32;99613.47;;;3.91;100.00
8320;BME280;4197;42.130;24.746;2022-12-07T03:07:10;99615.22;;;3.95;100.00
8320;BME280;4197;42.130;24.746;2022-12-07T03:09:44;99613.16;;;3.92;100.00
8320;BME280;4197;42.130;24.746;2022-12-07T03:12:17;99610.19;;;3.94;100.00
8320;BME280;4197;42.130;24.746;2022-12-07T03:14:50;99619.38;;;4.01;100.00
8320;BME280;4197;42.130;24.746;2022-12-07T03:17:24;99610.28;;;4.11;100.00
8320;BME280;4197;42.130;24.746;2022-12-07T03:19:58;99622.31;;;4.14;100.00
8320;BME280;4197;42.130;24.746;2022-12-07T03:22:29;99627.91;;;4.03;100.00
8320;BME280;4197;42.130;24.746;2022-12-07T03:25:01;99628.81;;;3.99;100.00
8320;BME280;4197;42.130;24.746;2022-12-07T03:27:33;99638.75;;;3.98;100.00
8320;BME280;4197;42.130;24.746;2022-12-07T03:30:04;99626.34;;;4.02;100.00
8320;BME280;4197;42.130;24.746;2022-12-07T03:32:37;99622.31;;;4.14;100.00
8320;BME280;4197;42.130;24.746;2022-12-07T03:35:12;99629.50;;;4.27;100.00
8320;BME280;4197;42.130;24.746;2022-12-07T03:37:46;99635.47;;;4.24;100.00
8320;BME280;4197;42.130;24.746;2022-12-07T03:40:19;99629.75;;;4.17;100.00
8320;BME280;4197;42.130;24.746;2022-12-07T03:42:51;99626.38;;;4.11;100.00
8320;BME280;4197;42.130;24.746;2022-12-07T03:45:24;99624.00;;;4.10;100.00
8320;BME280;4197;42.130;24.746;2022-12-07T03:48:02;99616.31;;;4.17;100.00
8320;BME280;4197;42.130;24.746;2022-12-07T03:50:38;99622.41;;;4.09;100.00
8320;BME280;4197;42.130;24.746;2022-12-07T03:53:14;99627.28;;;4.07;100.00
8320;BME280;4197;42.130;24.746;2022-12-07T03:55:46;99618.75;;;4.05;100.00
8320;BME280;4197;42.130;24.746;2022-12-07T03:58:19;99612.47;;;4.09;100.00
8320;BME280;4197;42.130;24.746;2022-12-07T04:00:48;99609.44;;;4.02;100.00
8320;BME280;4197;42.130;24.746;2022-12-07T04:03:18;99605.66;;;4.03;100.00
8320;BME280;4197;42.130;24.746;2022-12-07T04:05:47;99617.78;;;4.00;100.00
8320;BME280;4197;42.130;24.746;2022-12-07T04:08:15;99610.19;;;3.94;100.00
8320;BME280;4197;42.130;24.746;2022-12-07T04:10:43;99617.22;;;3.90;100.00
8320;BME280;4197;42.130;24.746;2022-12-07T04:13:11;99615.47;;;3.85;100.00
8320;BME280;4197;42.130;24.746;2022-12-07T04:15:39;99626.00;;;3.82;100.00
8320;BME280;4197;42.130;24.746;2022-12-07T04:18:08;99613.22;;;3.78;100.00
8320;BME280;4197;42.130;24.746;2022-12-07T04:20:37;99604.50;;;3.73;100.00
8320;BME280;4197;42.130;24.746;2022-12-07T04:23:05;99610.97;;;3.72;100.00
8320;BME280;4197;42.130;24.746;2022-12-07T04:25:33;99610.97;;;3.72;100.00
8320;BME280;4197;42.130;24.746;2022-12-07T04:28:01;99598.34;;;3.72;100.00
8320;BME280;4197;42.130;24.746;2022-12-07T04:30:30;99598.03;;;3.74;100.00
8320;BME280;4197;42.130;24.746;2022-12-07T04:32:58;99606.38;;;3.72;100.00
8320;BME280;4197;42.130;24.746;2022-12-07T04:35:26;99604.31;;;3.69;100.00
8320;BME280;4197;42.130;24.746;2022-12-07T04:37:55;99602.03;;;3.63;100.00
8320;BME280;4197;42.130;24.746;2022-12-07T04:40:24;99606.72;;;3.57;100.00
8320;BME280;4197;42.130;24.746;2022-12-07T04:42:52;99599.28;;;3.54;100.00
8320;BME280;4197;42.130;24.746;2022-12-07T04:45:20;99599.59;;;3.52;100.00
8320;BME280;4197;42.130;24.746;2022-12-07T04:47:48;99601.28;;;3.48;100.00
8320;BME280;4197;42.130;24.746;2022-12-07T04:50:16;99600.22;;;3.49;100.00
8320;BME280;4197;42.130;24.746;2022-12-07T04:52:44;99600.50;;;3.48;100.00
8320;BME280;4197;42.130;24.746;2022-12-07T04:55:14;99603.28;;;3.43;100.00
8320;BME280;4197;42.130;24.746;2022-12-07T04:57:42;99597.75;;;3.39;100.00
8320;BME280;4197;42.130;24.746;2022-12-07T05:00:10;99601.53;;;3.38;100.00
8320;BME280;4197;42.130;24.746;2022-12-07T05:02:39;99603.41;;;3.38;100.00
8320;BME280;4197;42.130;24.746;2022-12-07T05:05:08;99608.47;;;3.39;100.00
8320;BME280;4197;42.130;24.746;2022-12-07T05:07:36;99616.03;;;3.37;100.00
8320;BME280;4197;42.130;24.746;2022-12-07T05:10:05;99616.63;;;3.34;100.00
8320;BME280;4197;42.130;24.746;2022-12-07T05:12:35;99607.28;;;3.31;100.00
8320;BME280;4197;42.130;24.746;2022-12-07T05:15:05;99602.25;;;3.30;100.00
8320;BME280;4197;42.130;24.746;2022-12-07T05:17:33;99605.50;;;3.27;100.00
8320;BME280;4197;42.130;24.746;2022-12-07T05:20:01;99609.63;;;3.24;100.00
8320;BME280;4197;42.130;24.746;2022-12-07T05:22:30;99607.91;;;3.28;100.00
8320;BME280;4197;42.130;24.746;2022-12-07T05:24:58;99609.78;;;3.28;100.00
8320;BME280;4197;42.130;24.746;2022-12-07T05:27:27;99610.41;;;3.25;100.00
8320;BME280;4197;42.130;24.746;2022-12-07T05:29:56;99611.69;;;3.27;100.00
8320;BME280;4197;42.130;24.746;2022-12-07T05:32:25;99617.84;;;3.28;100.00
8320;BME280;4197;42.130;24.746;2022-12-07T05:34:53;99622.09;;;3.29;100.00
8320;BME280;4197;42.130;24.746;2022-12-07T05:37:22;99615.16;;;3.28;100.00
8320;BME280;4197;42.130;24.746;2022-12-07T05:39:51;99627.94;;;3.31;100.00
8320;BME280;4197;42.130;24.746;2022-12-07T05:42:19;99625.47;;;3.34;100.00
8320;BME280;4197;42.130;24.746;2022-12-07T05:44:47;99616.03;;;3.37;100.00
8320;BME280;4197;42.130;24.746;2022-12-07T05:47:16;99615.22;;;3.37;100.00
8320;BME280;4197;42.130;24.746;2022-12-07T05:49:45;99615.91;;;3.42;100.00
8320;BME280;4197;42.130;24.746;2022-12-07T05:52:13;99619.69;;;3.41;100.00
8320;BME280;4197;42.130;24.746;2022-12-07T05:54:41;99616.41;;;3.44;100.00
8320;BME280;4197;42.130;24.746;2022-12-07T05:57:09;99609.66;;;3.47;100.00
8320;BME280;4197;42.130;24.746;2022-12-07T05:59:37;99621.63;;;3.63;100.00
8320;BME280;4197;42.130;24.746;2022-12-07T06:02:06;99635.13;;;3.94;100.00
8320;BME280;4197;42.130;24.746;2022-12-07T06:04:39;99625.47;;;3.93;100.00
8320;BME280;4197;42.130;24.746;2022-12-07T06:07:07;99616.44;;;3.89;100.00
8320;BME280;4197;42.130;24.746;2022-12-07T06:09:36;99620.72;;;3.90;100.00
8320;BME280;4197;42.130;24.746;2022-12-07T06:12:05;99629.25;;;3.92;100.00
8320;BME280;4197;42.130;24.746;2022-12-07T06:14:50;99629.13;;;3.97;100.00
8320;BME280;4197;42.130;24.746;2022-12-07T06:17:19;99630.91;;;4.02;100.00
8320;BME280;4197;42.130;24.746;2022-12-07T06:19:48;99633.22;;;4.17;100.00
8320;BME280;4197;42.130;24.746;2022-12-07T06:22:17;99621.19;;;4.15;100.00
8320;BME280;4197;42.130;24.746;2022-12-07T06:24:45;99623.53;;;4.08;100.00
8320;BME280;4197;42.130;24.746;2022-12-07T06:27:13;99634.44;;;4.11;100.00
8320;BME280;4197;42.130;24.746;2022-12-07T06:29:41;99634.72;;;4.10;100.00
8320;BME280;4197;42.130;24.746;2022-12-07T06:32:09;99628.50;;;4.23;100.00
8320;BME280;4197;42.130;24.746;2022-12-07T06:34:38;99629.63;;;4.22;100.00
8320;BME280;4197;42.130;24.746;2022-12-07T06:37:09;99626.88;;;4.13;100.00
8320;BME280;4197;42.130;24.746;2022-12-07T06:39:37;99634.78;;;4.18;100.00
8320;BME280;4197;42.130;24.746;2022-12-07T06:42:05;99639.06;;;4.19;100.00
8320;BME280;4197;42.130;24.746;2022-12-07T06:44:33;99638.34;;;4.28;100.00
8320;BME280;4197;42.130;24.746;2022-12-07T06:47:01;99632.63;;;4.29;100.00
8320;BME280;4197;42.130;24.746;2022-12-07T06:49:51;99642.75;;;4.32;100.00
8320;BME280;4197;42.130;24.746;2022-12-07T06:52:20;99643.41;;;4.38;100.00
8320;BME280;4197;42.130;24.746;2022-12-07T06:54:48;99637.63;;;4.44;100.00
8320;BME280;4197;42.130;24.746;2022-12-07T06:57:16;99634.97;;;4.53;100.00
8320;BME280;4197;42.130;24.746;2022-12-07T06:59:45;99631.72;;;4.65;100.00
8320;BME280;4197;42.130;24.746;2022-12-07T07:02:13;99635.53;;;4.73;100.00
8320;BME280;4197;42.130;24.746;2022-12-07T07:04:41;99627.72;;;4.94;100.00
8320;BME280;4197;42.130;24.746;2022-12-07T07:07:09;99627.78;;;5.11;100.00
8320;BME280;4197;42.130;24.746;2022-12-07T07:09:38;99618.91;;;5.02;100.00
8320;BME280;4197;42.130;24.746;2022-12-07T07:12:07;99620.34;;;5.17;100.00
8320;BME280;4197;42.130;24.746;2022-12-07T07:14:36;99624.63;;;5.18;100.00
8320;BME280;4197;42.130;24.746;2022-12-07T07:17:04;99638.88;;;5.27;100.00
8320;BME280;4197;42.130;24.746;2022-12-07T07:19:32;99637.63;;;5.42;100.00
8320;BME280;4197;42.130;24.746;2022-12-07T07:22:00;99634.31;;;5.45;100.00
8320;BME280;4197;42.130;24.746;2022-12-07T07:24:28;99634.66;;;5.52;100.00
8320;BME280;4197;42.130;24.746;2022-12-07T07:26:57;99627.84;;;5.80;100.00
8320;BME280;4197;42.130;24.746;2022-12-07T07:29:26;99634.16;;;5.85;100.00
8320;BME280;4197;42.130;24.746;2022-12-07T07:31:54;99628.31;;;5.82;100.00
8320;BME280;4197;42.130;24.746;2022-12-07T07:34:27;99630.53;;;5.89;100.00
8320;BME280;4197;42.130;24.746;2022-12-07T07:36:55;99627.34;;;5.87;100.00
8320;BME280;4197;42.130;24.746;2022-12-07T07:39:23;99634.47;;;5.92;100.00
8320;BME280;4197;42.130;24.746;2022-12-07T07:41:51;99638.75;;;5.93;100.00
8320;BME280;4197;42.130;24.746;2022-12-07T07:44:21;99644.00;;;5.98;100.00
8320;BME280;4197;42.130;24.746;2022-12-07T07:46:49;99653.34;;;6.09;100.00
8320;BME280;4197;42.130;24.746;2022-12-07T07:49:17;99647.16;;;6.09;100.00
8320;BME280;4197;42.130;24.746;2022-12-07T07:51:46;99646.69;;;6.07;100.00
8320;BME280;4197;42.130;24.746;2022-12-07T07:54:14;99655.09;;;6.14;100.00
8320;BME280;4197;42.130;24.746;2022-12-07T07:56:43;99650.81;;;6.13;100.00
8320;BME280;4197;42.130;24.746;2022-12-07T07:59:11;99653.13;;;6.32;100.00
8320;BME280;4197;42.130;24.746;2022-12-07T08:01:40;99655.66;;;6.37;100.00
8320;BME280;4197;42.130;24.746;2022-12-07T08:04:09;99651.25;;;6.41;100.00
8320;BME280;4197;42.130;24.746;2022-12-07T08:06:37;99647.09;;;6.52;100.00
8320;BME280;4197;42.130;24.746;2022-12-07T08:09:06;99647.41;;;6.51;100.00
8320;BME280;4197;42.130;24.746;2022-12-07T08:11:35;99648.50;;;6.58;100.00
8320;BME280;4197;42.130;24.746;2022-12-07T08:14:04;99640.06;;;6.68;100.00
8320;BME280;4197;42.130;24.746;2022-12-07T08:16:32;99652.06;;;6.80;100.00
8320;BME280;4197;42.130;24.746;2022-12-07T08:19:01;99649.63;;;6.96;100.00
8320;BME280;4197;42.130;24.746;2022-12-07T08:21:32;99644.75;;;7.19;100.00
8320;BME280;4197;42.130;24.746;2022-12-07T08:24:00;99646.38;;;7.11;100.00
8320;BME280;4197;42.130;24.746;2022-12-07T08:26:28;99645.94;;;7.00;100.00
8320;BME280;4197;42.130;24.746;2022-12-07T08:28:56;99649.59;;;7.04;100.00
8320;BME280;4197;42.130;24.746;2022-12-07T08:31:24;99648.34;;;7.23;100.00
8320;BME280;4197;42.130;24.746;2022-12-07T08:33:54;99647.47;;;7.40;100.00
8320;BME280;4197;42.130;24.746;2022-12-07T08:36:26;99647.41;;;7.48;100.00
8320;BME280;4197;42.130;24.746;2022-12-07T08:38:54;99652.75;;;7.99;100.00
8320;BME280;4197;42.130;24.746;2022-12-07T08:41:42;99649.78;;;8.25;100.00
8320;BME280;4197;42.130;24.746;2022-12-07T08:44:10;99648.53;;;8.22;100.00
8320;BME280;4197;42.130;24.746;2022-12-07T08:46:41;99641.31;;;8.14;100.00
8320;BME280;4197;42.130;24.746;2022-12-07T08:49:15;99639.06;;;8.16;100.00
8320;BME280;4197;42.130;24.746;2022-12-07T08:51:46;99630.88;;;8.25;100.00
8320;BME280;4197;42.130;24.746;2022-12-07T08:54:16;99629.31;;;8.36;100.00
8320;BME280;4197;42.130;24.746;2022-12-07T08:56:46;99626.59;;;8.69;100.00
8320;BME280;4197;42.130;24.746;2022-12-07T08:59:23;99630.53;;;8.72;100.00
8320;BME280;4197;42.130;24.746;2022-12-07T09:01:51;99627.16;;;8.75;100.00
8320;BME280;4197;42.130;24.746;2022-12-07T09:04:20;99623.44;;;8.92;100.00
8320;BME280;4197;42.130;24.746;2022-12-07T09:06:49;99615.13;;;9.09;100.00
8320;BME280;4197;42.130;24.746;2022-12-07T09:09:18;99612.63;;;9.29;100.00
8320;BME280;4197;42.130;24.746;2022-12-07T09:11:46;99606.44;;;9.16;100.00
8320;BME280;4197;42.130;24.746;2022-12-07T09:14:14;99600.78;;;9.21;100.00
8320;BME280;4197;42.130;24.746;2022-12-07T09:16:43;99585.13;;;9.27;100.00
8320;BME280;4197;42.130;24.746;2022-12-07T09:19:12;99590.66;;;9.18;100.00
8320;BME280;4197;42.130;24.746;2022-12-07T09:21:40;99589.50;;;9.19;100.00
8320;BME280;4197;42.130;24.746;2022-12-07T09:24:11;99581.94;;;9.25;100.00
8320;BME280;4197;42.130;24.746;2022-12-07T09:26:39;99580.28;;;9.08;100.00
8320;BME280;4197;42.130;24.746;2022-12-07T09:29:07;99579.19;;;8.84;100.00
8320;BME280;4197;42.130;24.746;2022-12-07T09:31:36;99578.94;;;8.89;100.00
8320;BME280;4197;42.130;24.746;2022-12-07T09:34:05;99577.38;;;9.01;100.00
8320;BME280;4197;42.130;24.746;2022-12-07T09:36:34;99558.31;;;9.09;100.00
8320;BME280;4197;42.130;24.746;2022-12-07T09:39:04;99560.41;;;9.28;100.00
8320;BME280;4197;42.130;24.746;2022-12-07T09:41:37;99556.66;;;9.45;100.00
8320;BME280;4197;42.130;24.746;2022-12-07T09:44:10;99553.59;;;9.47;100.00
8320;BME280;4197;42.130;24.746;2022-12-07T09:46:42;99559.53;;;9.52;100.00
8320;BME280;4197;42.130;24.746;2022-12-07T09:49:12;99547.63;;;9.41;100.00
8320;BME280;4197;42.130;24.746;2022-12-07T09:51:42;99536.84;;;9.29;100.00
8320;BME280;4197;42.130;24.746;2022-12-07T09:54:13;99536.66;;;9.50;100.00
8320;BME280;4197;42.130;24.746;2022-12-07T09:56:44;99542.03;;;9.62;100.00
8320;BME280;4197;42.130;24.746;2022-12-07T09:59:16;99540.19;;;9.38;100.00
8320;BME280;4197;42.130;24.746;2022-12-07T10:01:49;99529.13;;;9.43;100.00
8320;BME280;4197;42.130;24.746;2022-12-07T10:04:19;99543.13;;;9.73;100.00
8320;BME280;4197;42.130;24.746;2022-12-07T10:06:48;99542.75;;;9.75;100.00
8320;BME280;4197;42.130;24.746;2022-12-07T10:09:19;99534.94;;;9.86;100.00
8320;BME280;4197;42.130;24.746;2022-12-07T10:12:07;99534.22;;;9.89;100.00
8320;BME280;4197;42.130;24.746;2022-12-07T10:14:38;99534.69;;;9.91;100.00
8320;BME280;4197;42.130;24.746;2022-12-07T10:17:34;99532.13;;;9.82;100.00
8320;BME280;4197;42.130;24.746;2022-12-07T10:20:19;99529.50;;;9.86;100.00
8320;BME280;4197;42.130;24.746;2022-12-07T10:23:02;99516.06;;;10.05;100.00
8320;BME280;4197;42.130;24.746;2022-12-07T10:25:32;99518.88;;;9.93;100.00
8320;BME280;4197;42.130;24.746;2022-12-07T10:28:12;99508.56;;;9.98;100.00
8320;BME280;4197;42.130;24.746;2022-12-07T10:30:48;99494.91;;;9.95;100.00
8320;BME280;4197;42.130;24.746;2022-12-07T10:33:34;99498.84;;;9.81;100.00
8320;BME280;4197;42.130;24.746;2022-12-07T10:36:18;99490.91;;;10.04;100.00
8320;BME280;4197;42.130;24.746;2022-12-07T10:38:48;99493.97;;;10.19;100.00
8320;BME280;4197;42.130;24.746;2022-12-07T10:41:16;99501.50;;;10.10;100.00
8320;BME280;4197;42.130;24.746;2022-12-07T10:43:54;99505.25;;;10.21;100.00
8320;BME280;4197;42.130;24.746;2022-12-07T10:46:46;99507.38;;;10.59;100.00
8320;BME280;4197;42.130;24.746;2022-12-07T10:52:28;99508.09;;;10.40;100.00
8320;BME280;4197;42.130;24.746;2022-12-07T10:55:13;99498.72;;;10.38;100.00
8320;BME280;4197;42.130;24.746;2022-12-07T10:57:54;99503.19;;;10.46;100.00
8320;BME280;4197;42.130;24.746;2022-12-07T11:00:26;99489.78;;;10.21;100.00
8320;BME280;4197;42.130;24.746;2022-12-07T11:03:11;99496.88;;;10.26;100.00
8320;BME280;4197;42.130;24.746;2022-12-07T11:05:47;99487.44;;;10.36;100.00
8320;BME280;4197;42.130;24.746;2022-12-07T11:08:25;99494.06;;;10.22;100.00
8320;BME280;4197;42.130;24.746;2022-12-07T11:11:02;99485.94;;;10.38;100.00
8320;BME280;4197;42.130;24.746;2022-12-07T11:13:40;99486.78;;;10.58;100.00
8320;BME280;4197;42.130;24.746;2022-12-07T11:16:32;99482.00;;;10.36;100.00
8320;BME280;4197;42.130;24.746;2022-12-07T11:19:16;99473.03;;;10.32;100.00
8320;BME280;4197;42.130;24.746;2022-12-07T11:21:57;99471.88;;;10.33;100.00
8320;BME280;4197;42.130;24.746;2022-12-07T11:24:31;99472.84;;;10.40;100.00
8320;BME280;4197;42.130;24.746;2022-12-07T11:27:09;99476.34;;;10.41;100.00
8320;BME280;4197;42.130;24.746;2022-12-07T11:30:02;99465.75;;;10.36;100.00
8320;BME280;4197;42.130;24.746;2022-12-07T11:32:45;99464.44;;;10.45;100.00
8320;BME280;4197;42.130;24.746;2022-12-07T11:35:22;99462.84;;;10.44;100.00
8320;BME280;4197;42.130;24.746;2022-12-07T11:37:57;99461.97;;;10.56;100.00
8320;BME280;4197;42.130;24.746;2022-12-07T11:40:30;99458.06;;;10.38;100.00
8320;BME280;4197;42.130;24.746;2022-12-07T11:43:10;99455.28;;;10.34;100.00
8320;BME280;4197;42.130;24.746;2022-12-07T11:45:42;99454.91;;;10.36;100.00
8320;BME280;4197;42.130;24.746;2022-12-07T11:48:17;99446.69;;;10.32;100.00
8320;BME280;4197;42.130;24.746;2022-12-07T11:50:51;99448.63;;;10.32;100.00
8320;BME280;4197;42.130;24.746;2022-12-07T11:53:26;99435.16;;;10.35;100.00
8320;BME280;4197;42.130;24.746;2022-12-07T11:55:57;99436.38;;;10.38;100.00
8320;BME280;4197;42.130;24.746;2022-12-07T11:58:48;99432.69;;;10.46;100.00
8320;BME280;4197;42.130;24.746;2022-12-07T12:01:35;99434.69;;;10.49;100.00
8320;BME280;4197;42.130;24.746;2022-12-07T12:04:21;99434.88;;;10.56;100.00
8320;BME280;4197;42.130;24.746;2022-12-07T12:06:51;99426.88;;;10.63;100.00
8320;BME280;4197;42.130;24.746;2022-12-07T12:09:24;99425.09;;;10.71;100.00
8320;BME280;4197;42.130;24.746;2022-12-07T12:15:41;99424.25;;;10.67;100.00
8320;BME280;4197;42.130;24.746;2022-12-07T12:18:30;99420.19;;;10.77;100.00
8320;BME280;4197;42.130;24.746;2022-12-07T12:21:07;99416.31;;;10.78;100.00
8320;BME280;4197;42.130;24.746;2022-12-07T12:23:40;99417.81;;;10.75;100.00
8320;BME280;4197;42.130;24.746;2022-12-07T12:26:16;99427.16;;;10.78;100.00
8320;BME280;4197;42.130;24.746;2022-12-07T12:28:52;99417.41;;;10.73;100.00
8320;BME280;4197;42.130;24.746;2022-12-07T12:31:34;99413.97;;;10.76;100.00
8320;BME280;4197;42.130;24.746;2022-12-07T12:34:10;99406.84;;;10.68;100.00
8320;BME280;4197;42.130;24.746;2022-12-07T12:36:54;99400.19;;;10.65;100.00
8320;BME280;4197;42.130;24.746;2022-12-07T12:39:22;99404.19;;;10.71;100.00
8320;BME280;4197;42.130;24.746;2022-12-07T12:41:55;99395.53;;;10.66;100.00
8320;BME280;4197;42.130;24.746;2022-12-07T12:50:33;99386.34;;;10.70;100.00
8320;BME280;4197;42.130;24.746;2022-12-07T12:53:21;99392.84;;;10.66;100.00
8320;BME280;4197;42.130;24.746;2022-12-07T12:56:15;99389.34;;;10.65;100.00
8320;BME280;4197;42.130;24.746;2022-12-07T12:58:48;99382.34;;;10.64;100.00
8320;BME280;4197;42.130;24.746;2022-12-07T13:01:46;99382.25;;;10.25;100.00
8320;BME280;4197;42.130;24.746;2022-12-07T13:04:28;99385.50;;;10.15;100.00
8320;BME280;4197;42.130;24.746;2022-12-07T13:06:58;99390.94;;;10.15;100.00
8320;BME280;4197;42.130;24.746;2022-12-07T13:09:30;99375.28;;;10.09;100.00
8320;BME280;4197;42.130;24.746;2022-12-07T13:12:02;99378.75;;;10.25;100.00
8320;BME280;4197;42.130;24.746;2022-12-07T13:14:43;99375.25;;;10.24;100.00
8320;BME280;4197;42.130;24.746;2022-12-07T13:17:12;99383.66;;;10.19;100.00
8320;BME280;4197;42.130;24.746;2022-12-07T13:20:02;99379.19;;;10.11;100.00
8320;BME280;4197;42.130;24.746;2022-12-07T13:22:58;99380.88;;;10.16;100.00
8320;BME280;4197;42.130;24.746;2022-12-07T13:26:03;99383.59;;;10.32;100.00
8320;BME280;4197;42.130;24.746;2022-12-07T13:28:36;99389.06;;;10.35;100.00
8320;BME280;4197;42.130;24.746;2022-12-07T13:33:55;99392.56;;;10.36;100.00
8320;BME280;4197;42.130;24.746;2022-12-07T13:36:25;99395.22;;;10.32;100.00
8320;BME280;4197;42.130;24.746;2022-12-07T13:38:56;99389.50;;;10.21;100.00
8320;BME280;4197;42.130;24.746;2022-12-07T13:41:27;99391.78;;;10.19;100.00
8320;BME280;4197;42.130;24.746;2022-12-07T13:44:01;99382.78;;;10.15;100.00
8320;BME280;4197;42.130;24.746;2022-12-07T13:46:44;99388.72;;;10.21;100.00
8320;BME280;4197;42.130;24.746;2022-12-07T13:49:20;99385.25;;;10.20;100.00
8320;BME280;4197;42.130;24.746;2022-12-07T13:51:49;99381.38;;;10.21;100.00
8320;BME280;4197;42.130;24.746;2022-12-07T13:54:18;99381.56;;;10.13;100.00